createdAt,value
2023-01-31T00:01:26.870Z,12.40
2023-01-31T00:03:55.368Z,13.60
2023-01-31T00:06:30.186Z,12.50
2023-01-31T00:08:58.920Z,10.70
2023-01-31T00:11:28.155Z,15.90
2023-01-31T00:13:55.737Z,10.80
2023-01-31T00:16:22.866Z,11.00
2023-01-31T00:18:50.857Z,11.70
2023-01-31T00:21:29.252Z,11.60
2023-01-31T00:23:57.607Z,11.50
2023-01-31T00:26:29.013Z,13.50
2023-01-31T00:28:57.612Z,11.50
2023-01-31T00:31:26.881Z,14.50
2023-01-31T00:33:54.857Z,13.10
2023-01-31T00:36:28.006Z,11.00
2023-01-31T00:38:57.152Z,11.40
2023-01-31T00:41:25.476Z,13.30
2023-01-31T00:43:52.458Z,10.80
2023-01-31T00:46:23.360Z,9.60
2023-01-31T00:48:50.811Z,10.90
2023-01-31T00:51:19.584Z,13.20
2023-01-31T00:53:47.506Z,13.10
2023-01-31T00:56:17.791Z,8.50
2023-01-31T00:58:45.496Z,9.00
2023-01-31T01:01:16.064Z,8.80
2023-01-31T01:03:45.381Z,12.00
2023-01-31T01:06:14.477Z,10.40
2023-01-31T01:08:42.690Z,14.20
2023-01-31T01:11:13.546Z,12.20
2023-01-31T01:13:41.030Z,10.60
2023-01-31T01:16:11.200Z,13.00
2023-01-31T01:18:39.029Z,11.40
2023-01-31T01:21:11.720Z,10.30
2023-01-31T01:23:39.456Z,11.90
2023-01-31T01:26:13.505Z,11.70
2023-01-31T01:28:40.354Z,11.80
2023-01-31T01:31:08.834Z,11.30
2023-01-31T01:33:36.661Z,11.50
2023-01-31T01:36:06.040Z,11.00
2023-01-31T01:38:37.405Z,13.90
2023-01-31T01:41:05.208Z,10.20
2023-01-31T01:43:45.742Z,8.00
2023-01-31T01:46:17.646Z,11.40
2023-01-31T01:48:49.648Z,11.80
2023-01-31T01:51:18.978Z,13.20
2023-01-31T01:53:49.606Z,9.30
2023-01-31T01:56:23.324Z,12.00
2023-01-31T01:59:20.006Z,11.60
2023-01-31T02:01:48.878Z,11.60
2023-01-31T02:04:21.497Z,12.30
2023-01-31T02:06:48.378Z,12.70
2023-01-31T02:09:52.959Z,12.90
2023-01-31T02:12:20.361Z,8.20
2023-01-31T02:14:48.003Z,17.10
2023-01-31T02:17:17.340Z,14.70
2023-01-31T02:20:00.716Z,13.00
2023-01-31T02:22:34.030Z,13.80
2023-01-31T02:25:28.659Z,9.10
2023-01-31T02:28:14.368Z,10.50
2023-01-31T02:30:50.151Z,7.10
2023-01-31T02:33:32.538Z,15.00
2023-01-31T02:36:14.421Z,9.60
2023-01-31T02:39:10.522Z,9.60
2023-01-31T02:41:40.224Z,16.20
2023-01-31T02:44:50.693Z,10.70
2023-01-31T02:48:12.303Z,10.60
2023-01-31T02:51:07.666Z,13.90
2023-01-31T02:53:43.056Z,11.60
2023-01-31T02:56:17.484Z,16.80
2023-01-31T02:58:57.388Z,12.80
2023-01-31T03:01:29.713Z,10.70
2023-01-31T03:04:05.127Z,17.70
2023-01-31T03:06:35.424Z,13.50
2023-01-31T03:09:06.664Z,11.50
2023-01-31T03:12:09.312Z,13.40
2023-01-31T03:14:51.400Z,12.10
2023-01-31T03:17:37.850Z,10.00
2023-01-31T03:20:07.534Z,16.40
2023-01-31T03:22:58.388Z,11.40
2023-01-31T03:25:30.250Z,13.70
2023-01-31T03:28:05.948Z,13.50
2023-01-31T03:30:36.302Z,13.40
2023-01-31T03:33:20.779Z,14.70
2023-01-31T03:35:56.515Z,9.60
2023-01-31T03:38:28.232Z,12.90
2023-01-31T03:41:08.254Z,13.90
2023-01-31T03:43:45.791Z,8.80
2023-01-31T03:46:18.224Z,9.10
2023-01-31T03:48:50.615Z,16.50
2023-01-31T03:51:27.066Z,15.10
2023-01-31T03:53:59.160Z,13.20
2023-01-31T03:56:42.038Z,12.00
2023-01-31T03:59:16.832Z,13.30
2023-01-31T04:01:48.449Z,13.70
2023-01-31T04:04:21.439Z,16.70
2023-01-31T04:06:48.654Z,11.50
2023-01-31T04:09:16.470Z,9.60
2023-01-31T04:11:47.879Z,12.70
2023-01-31T04:14:16.016Z,16.90
2023-01-31T04:16:42.704Z,11.10
2023-01-31T04:19:09.506Z,13.80
2023-01-31T04:21:36.879Z,13.90
2023-01-31T04:24:03.608Z,14.20
2023-01-31T04:26:30.403Z,11.10
2023-01-31T04:28:57.221Z,16.10
2023-01-31T04:31:23.874Z,16.50
2023-01-31T04:33:50.820Z,19.30
2023-01-31T04:36:17.536Z,14.90
2023-01-31T04:38:44.359Z,16.40
2023-01-31T04:41:11.192Z,21.00
2023-01-31T04:43:37.984Z,9.50
2023-01-31T04:46:04.593Z,13.50
2023-01-31T04:48:31.811Z,12.50
2023-01-31T04:50:58.599Z,8.30
2023-01-31T04:53:25.704Z,16.40
2023-01-31T04:55:55.886Z,12.60
2023-01-31T04:58:22.979Z,15.00
2023-01-31T05:00:49.591Z,11.50
2023-01-31T05:03:17.689Z,14.50
2023-01-31T05:05:44.410Z,10.10
2023-01-31T05:08:10.981Z,14.30
2023-01-31T05:10:39.509Z,12.70
2023-01-31T05:13:07.314Z,16.50
2023-01-31T05:15:34.032Z,12.40
2023-01-31T05:18:04.516Z,20.40
2023-01-31T05:20:36.187Z,19.70
2023-01-31T05:23:03.775Z,15.50
2023-01-31T05:25:31.527Z,14.60
2023-01-31T05:27:59.004Z,12.20
2023-01-31T05:30:28.030Z,16.20
2023-01-31T05:32:54.940Z,14.40
2023-01-31T05:35:22.107Z,13.30
2023-01-31T05:37:48.946Z,19.30
2023-01-31T05:40:17.051Z,11.10
2023-01-31T05:42:44.265Z,17.00
2023-01-31T05:45:12.019Z,13.70
2023-01-31T05:47:38.927Z,12.80
2023-01-31T05:50:06.664Z,14.70
2023-01-31T05:52:33.446Z,12.30
2023-01-31T05:55:00.435Z,9.00
2023-01-31T05:57:27.952Z,11.70
2023-01-31T05:59:54.556Z,11.80
2023-01-31T06:02:21.261Z,10.30
2023-01-31T06:04:48.957Z,9.30
2023-01-31T06:07:16.230Z,9.90
2023-01-31T06:09:43.384Z,10.40
2023-01-31T06:12:14.071Z,12.50
2023-01-31T06:14:40.988Z,11.90
2023-01-31T06:17:07.786Z,14.40
2023-01-31T06:19:34.663Z,7.00
2023-01-31T06:22:01.416Z,12.90
2023-01-31T06:24:28.044Z,12.70
2023-01-31T06:26:54.752Z,11.80
2023-01-31T06:29:22.070Z,12.50
2023-01-31T06:31:48.950Z,13.40
2023-01-31T06:34:15.792Z,13.60
2023-01-31T06:36:42.638Z,11.30
2023-01-31T06:39:10.966Z,10.50
2023-01-31T06:41:37.710Z,11.70
2023-01-31T06:44:04.378Z,13.70
2023-01-31T06:46:32.939Z,13.00
2023-01-31T06:48:59.768Z,12.20
2023-01-31T06:51:26.563Z,11.10
2023-01-31T06:53:55.751Z,15.40
2023-01-31T06:56:23.002Z,11.90
2023-01-31T06:58:49.972Z,9.10
2023-01-31T07:01:16.866Z,13.20
2023-01-31T07:03:43.716Z,10.10
2023-01-31T07:06:11.466Z,12.00
2023-01-31T07:08:38.117Z,16.50
2023-01-31T07:11:05.603Z,11.50
2023-01-31T07:13:32.505Z,13.20
2023-01-31T07:15:59.758Z,12.60
2023-01-31T07:18:26.780Z,11.50
2023-01-31T07:20:53.514Z,15.20
2023-01-31T07:23:20.292Z,9.10
2023-01-31T07:25:46.991Z,9.70
2023-01-31T07:28:13.735Z,10.20
2023-01-31T07:30:43.265Z,10.40
2023-01-31T07:33:11.337Z,12.60
2023-01-31T07:35:38.227Z,12.50
2023-01-31T07:38:05.502Z,14.00
2023-01-31T07:40:32.405Z,14.00
2023-01-31T07:42:59.424Z,14.20
2023-01-31T07:45:27.052Z,14.20
2023-01-31T07:47:58.577Z,12.10
2023-01-31T07:50:29.807Z,9.00
2023-01-31T07:52:58.188Z,8.80
2023-01-31T07:55:26.097Z,11.00
2023-01-31T07:57:52.998Z,15.20
2023-01-31T08:00:39.092Z,12.00
2023-01-31T08:03:24.470Z,11.30
2023-01-31T08:05:51.232Z,9.70
2023-01-31T08:08:18.038Z,13.50
2023-01-31T08:10:47.226Z,14.70
2023-01-31T08:13:14.120Z,12.00
2023-01-31T08:15:40.717Z,13.50
2023-01-31T08:18:07.398Z,15.30
2023-01-31T08:20:37.171Z,12.40
2023-01-31T08:23:03.932Z,9.80
2023-01-31T08:25:30.780Z,14.40
2023-01-31T08:27:58.091Z,12.10
2023-01-31T08:30:24.920Z,10.30
2023-01-31T08:32:52.129Z,11.30
2023-01-31T08:35:19.155Z,12.00
2023-01-31T08:37:46.550Z,10.00
2023-01-31T08:40:13.319Z,12.20
2023-01-31T08:42:40.002Z,8.90
2023-01-31T08:45:06.897Z,8.60
2023-01-31T08:47:33.991Z,11.60
2023-01-31T08:50:00.693Z,16.30
2023-01-31T08:52:27.492Z,10.30
2023-01-31T08:54:54.312Z,11.40
2023-01-31T08:57:21.041Z,12.20
2023-01-31T08:59:47.781Z,10.40
2023-01-31T09:02:14.556Z,10.00
2023-01-31T09:04:41.143Z,13.20
2023-01-31T09:07:07.942Z,11.00
2023-01-31T09:09:35.281Z,16.00
2023-01-31T09:12:04.190Z,14.30
2023-01-31T09:14:31.128Z,15.00
2023-01-31T09:16:58.075Z,18.20
2023-01-31T09:19:24.905Z,16.10
2023-01-31T09:21:51.786Z,11.80
2023-01-31T09:24:18.563Z,10.70
2023-01-31T09:26:45.456Z,12.70
2023-01-31T09:29:12.213Z,11.70
2023-01-31T09:31:41.439Z,14.90
2023-01-31T09:34:08.288Z,11.80
2023-01-31T09:36:34.989Z,12.70
2023-01-31T09:39:02.111Z,6.50
2023-01-31T09:41:43.644Z,9.10
2023-01-31T09:44:20.587Z,10.00
2023-01-31T09:47:11.213Z,15.20
2023-01-31T09:49:51.800Z,12.50
2023-01-31T09:52:18.664Z,16.80
2023-01-31T09:54:45.329Z,11.00
2023-01-31T09:57:11.981Z,12.50
2023-01-31T09:59:48.486Z,10.70
2023-01-31T10:02:27.600Z,11.00
2023-01-31T10:05:18.598Z,8.80
2023-01-31T10:08:07.655Z,12.80
2023-01-31T10:10:44.859Z,10.00
2023-01-31T10:13:22.826Z,11.00
2023-01-31T10:16:11.648Z,19.20
2023-01-31T10:18:43.694Z,9.00
2023-01-31T10:21:18.522Z,15.10
2023-01-31T10:23:58.118Z,15.50
2023-01-31T10:26:36.460Z,10.90
2023-01-31T10:29:06.271Z,12.70
2023-01-31T10:31:53.441Z,13.00
2023-01-31T10:34:28.224Z,13.20
2023-01-31T10:37:09.406Z,11.40
2023-01-31T10:39:43.410Z,10.90
2023-01-31T10:42:32.555Z,9.60
2023-01-31T10:45:33.641Z,12.80
2023-01-31T10:48:25.613Z,7.90
2023-01-31T10:51:16.437Z,11.60
2023-01-31T10:54:01.505Z,9.40
2023-01-31T10:56:35.613Z,10.20
2023-01-31T10:59:10.816Z,10.70
2023-01-31T11:01:37.868Z,10.90
2023-01-31T11:04:21.880Z,7.60
2023-01-31T11:06:48.764Z,8.00
2023-01-31T11:09:26.946Z,12.50
2023-01-31T11:12:00.089Z,7.40
2023-01-31T11:14:29.427Z,11.60
2023-01-31T11:17:18.231Z,13.50
2023-01-31T11:19:49.364Z,9.70
2023-01-31T11:22:29.963Z,11.30
2023-01-31T11:24:59.225Z,11.80
2023-01-31T11:27:43.133Z,13.90
2023-01-31T11:30:27.951Z,8.20
2023-01-31T11:32:55.118Z,11.10
2023-01-31T11:35:25.232Z,11.50
2023-01-31T11:37:54.048Z,7.80
2023-01-31T11:40:29.278Z,10.30
2023-01-31T11:42:57.415Z,8.10
2023-01-31T11:45:27.862Z,8.40
2023-01-31T11:48:07.808Z,11.60
2023-01-31T11:50:38.945Z,9.90
2023-01-31T11:53:27.447Z,7.40
2023-01-31T11:55:57.012Z,11.60
2023-01-31T11:58:32.547Z,9.80
2023-01-31T12:01:07.889Z,13.10
2023-01-31T12:03:35.318Z,8.30
2023-01-31T12:06:05.709Z,8.90
2023-01-31T12:08:37.900Z,7.00
2023-01-31T12:11:26.337Z,12.00
2023-01-31T12:14:00.612Z,11.60
2023-01-31T12:16:30.609Z,7.10
2023-01-31T12:19:10.128Z,7.00
2023-01-31T12:21:52.541Z,7.10
2023-01-31T12:24:36.789Z,8.50
2023-01-31T12:27:33.439Z,7.90
2023-01-31T12:30:08.786Z,8.10
2023-01-31T12:32:41.619Z,8.40
2023-01-31T12:35:30.354Z,8.70
2023-01-31T12:38:25.206Z,7.80
2023-01-31T12:41:01.065Z,7.30
2023-01-31T12:43:59.164Z,5.60
2023-01-31T12:47:09.967Z,7.50
2023-01-31T12:50:03.121Z,8.20
2023-01-31T12:52:40.730Z,6.80
2023-01-31T12:55:20.100Z,7.80
2023-01-31T12:57:56.623Z,9.80
2023-01-31T13:00:26.429Z,10.80
2023-01-31T13:03:18.366Z,6.70
2023-01-31T13:05:55.819Z,10.80
2023-01-31T13:08:31.518Z,7.00
2023-01-31T13:11:09.261Z,8.10
2023-01-31T13:13:47.229Z,7.40
2023-01-31T13:16:28.694Z,9.10
2023-01-31T13:18:59.789Z,7.00
2023-01-31T13:21:33.156Z,7.60
2023-01-31T13:24:11.211Z,9.00
2023-01-31T13:26:44.996Z,6.80
2023-01-31T13:29:39.745Z,4.00
2023-01-31T13:32:14.379Z,9.50
2023-01-31T13:34:51.978Z,10.50
2023-01-31T13:37:21.746Z,11.00
2023-01-31T13:40:02.119Z,13.10
2023-01-31T13:42:29.438Z,8.30
2023-01-31T13:45:01.529Z,13.20
2023-01-31T13:47:48.176Z,9.60
2023-01-31T13:50:37.876Z,11.20
2023-01-31T13:53:12.816Z,8.70
2023-01-31T13:55:44.853Z,9.50
2023-01-31T13:58:23.768Z,9.90
2023-01-31T14:00:58.730Z,11.30
2023-01-31T14:03:27.016Z,14.30
2023-01-31T14:06:00.320Z,13.30
2023-01-31T14:08:27.120Z,13.00
2023-01-31T14:11:13.350Z,15.50
2023-01-31T14:13:43.539Z,15.10
2023-01-31T14:16:38.031Z,14.80
2023-01-31T14:19:25.634Z,13.30
2023-01-31T14:21:53.526Z,11.60
2023-01-31T14:24:46.504Z,11.70
2023-01-31T14:27:20.995Z,14.90
2023-01-31T14:29:58.619Z,16.60
2023-01-31T14:32:34.018Z,12.60
2023-01-31T14:35:12.726Z,9.40
2023-01-31T14:37:51.865Z,13.90
2023-01-31T14:40:27.616Z,12.40
2023-01-31T14:43:16.113Z,14.10
2023-01-31T14:46:04.463Z,17.30
2023-01-31T14:48:53.628Z,12.70
2023-01-31T14:51:38.342Z,12.90
2023-01-31T14:54:22.776Z,13.20
2023-01-31T14:56:52.733Z,12.00
2023-01-31T14:59:29.312Z,12.10
2023-01-31T15:01:57.865Z,11.40
2023-01-31T15:04:26.948Z,14.50
2023-01-31T15:06:55.652Z,17.00
2023-01-31T15:09:23.934Z,12.40
2023-01-31T15:11:56.075Z,12.70
2023-01-31T15:14:38.541Z,13.70
2023-01-31T15:17:07.224Z,12.80
2023-01-31T15:20:06.127Z,20.60
2023-01-31T15:22:37.863Z,14.70
2023-01-31T15:25:18.248Z,16.70
2023-01-31T15:27:46.959Z,14.10
2023-01-31T15:30:19.818Z,19.20
2023-01-31T15:33:05.946Z,11.20
2023-01-31T15:35:44.100Z,14.70
2023-01-31T15:38:23.959Z,20.00
2023-01-31T15:41:22.279Z,19.40
2023-01-31T15:44:11.431Z,17.40
2023-01-31T15:46:38.441Z,18.30
2023-01-31T15:49:38.670Z,19.70
2023-01-31T15:52:13.736Z,13.30
2023-01-31T15:54:52.153Z,16.60
2023-01-31T15:57:21.752Z,20.10
2023-01-31T15:59:48.761Z,19.80
2023-01-31T16:02:27.694Z,19.50
2023-01-31T16:04:55.199Z,17.60
2023-01-31T16:07:27.891Z,19.60
2023-01-31T16:09:57.843Z,24.20
2023-01-31T16:12:27.347Z,20.60
2023-01-31T16:14:58.756Z,16.50
2023-01-31T16:17:29.263Z,16.40
2023-01-31T16:19:56.152Z,20.80
2023-01-31T16:22:32.436Z,20.70
2023-01-31T16:25:02.271Z,17.90
2023-01-31T16:27:37.538Z,17.60
2023-01-31T16:30:08.713Z,19.30
2023-01-31T16:32:39.962Z,17.90
2023-01-31T16:35:20.076Z,18.90
2023-01-31T16:38:01.487Z,14.30
2023-01-31T16:40:32.805Z,18.30
2023-01-31T16:43:08.976Z,18.80
2023-01-31T16:45:35.858Z,20.80
2023-01-31T16:48:33.834Z,15.80
2023-01-31T16:51:27.582Z,17.20
2023-01-31T16:54:16.177Z,18.60
2023-01-31T16:56:44.884Z,14.50
2023-01-31T16:59:37.212Z,14.10
2023-01-31T17:02:12.889Z,18.80
2023-01-31T17:04:41.629Z,17.70
2023-01-31T17:07:18.237Z,15.00
2023-01-31T17:09:46.635Z,21.00
2023-01-31T17:12:26.244Z,18.70
2023-01-31T17:14:57.655Z,17.70
2023-01-31T17:17:33.841Z,28.30
2023-01-31T17:20:00.577Z,20.50
2023-01-31T17:22:27.455Z,25.60
2023-01-31T17:24:54.111Z,43.20
2023-01-31T17:27:21.633Z,32.90
2023-01-31T17:29:49.233Z,28.10
2023-01-31T17:32:18.947Z,23.20
2023-01-31T17:34:48.420Z,26.00
2023-01-31T17:37:20.875Z,19.70
2023-01-31T17:39:50.978Z,23.60
2023-01-31T17:42:20.764Z,26.10
2023-01-31T17:44:47.722Z,20.40
2023-01-31T17:47:14.668Z,24.40
2023-01-31T17:49:41.402Z,20.20
2023-01-31T17:52:08.055Z,24.90
2023-01-31T17:54:34.913Z,20.90
2023-01-31T17:57:01.663Z,27.20
2023-01-31T17:59:28.324Z,28.90
2023-01-31T18:01:55.479Z,25.20
2023-01-31T18:04:22.346Z,22.40
2023-01-31T18:06:49.034Z,24.10
2023-01-31T18:09:16.639Z,28.60
2023-01-31T18:11:44.293Z,18.20
2023-01-31T18:14:11.565Z,25.00
2023-01-31T18:16:39.575Z,23.30
2023-01-31T18:19:06.325Z,23.50
2023-01-31T18:21:37.080Z,18.80
2023-01-31T18:24:10.381Z,20.60
2023-01-31T18:26:37.321Z,20.80
2023-01-31T18:29:04.218Z,22.40
2023-01-31T18:31:33.536Z,19.10
2023-01-31T18:34:01.578Z,18.50
2023-01-31T18:36:28.333Z,24.80
2023-01-31T18:38:55.817Z,22.70
2023-01-31T18:41:22.591Z,21.60
2023-01-31T18:43:49.739Z,19.80
2023-01-31T18:46:16.795Z,21.10
2023-01-31T18:48:44.494Z,23.50
2023-01-31T18:51:13.623Z,23.90
2023-01-31T18:53:44.208Z,23.90
2023-01-31T18:56:13.526Z,18.50
2023-01-31T18:58:41.383Z,18.00
2023-01-31T19:01:30.035Z,20.80
2023-01-31T19:03:57.892Z,17.70
2023-01-31T19:06:27.816Z,17.40
2023-01-31T19:08:56.775Z,24.20
2023-01-31T19:11:27.028Z,23.60
2023-01-31T19:13:53.886Z,19.10
2023-01-31T19:16:23.467Z,25.90
2023-01-31T19:18:51.154Z,39.70
2023-01-31T19:21:20.439Z,21.90
2023-01-31T19:23:48.411Z,20.90
2023-01-31T19:26:16.874Z,20.70
2023-01-31T19:28:44.989Z,19.10
2023-01-31T19:31:18.269Z,14.00
2023-01-31T19:33:50.632Z,18.50
2023-01-31T19:36:21.457Z,21.60
2023-01-31T19:38:48.789Z,21.20
2023-01-31T19:41:21.390Z,14.30
2023-01-31T19:43:53.043Z,20.30
2023-01-31T19:46:22.351Z,16.20
2023-01-31T19:48:49.391Z,15.10
2023-01-31T19:51:19.136Z,16.00
2023-01-31T19:53:46.805Z,18.80
2023-01-31T19:56:13.933Z,18.90
2023-01-31T19:58:41.399Z,19.10
2023-01-31T20:01:10.907Z,18.50
2023-01-31T20:03:38.067Z,15.60
2023-01-31T20:06:07.853Z,19.90
2023-01-31T20:08:35.631Z,14.70
2023-01-31T20:11:03.664Z,16.60
2023-01-31T20:13:30.599Z,18.30
2023-01-31T20:15:59.508Z,18.00
2023-01-31T20:18:26.282Z,17.30
2023-01-31T20:20:53.589Z,14.40
2023-01-31T20:23:21.097Z,16.30
2023-01-31T20:25:49.833Z,14.90
2023-01-31T20:28:18.426Z,13.20
2023-01-31T20:30:45.680Z,13.40
2023-01-31T20:33:13.649Z,16.30
2023-01-31T20:35:42.026Z,14.90
2023-01-31T20:38:10.145Z,33.50
2023-01-31T20:40:38.339Z,38.90
2023-01-31T20:43:05.575Z,17.00
2023-01-31T20:45:33.360Z,18.60
2023-01-31T20:48:00.359Z,13.80
2023-01-31T20:50:27.885Z,13.20
2023-01-31T20:52:56.000Z,13.40
2023-01-31T20:55:23.700Z,16.80
2023-01-31T20:57:51.224Z,13.80
2023-01-31T21:00:21.622Z,14.00
2023-01-31T21:02:48.944Z,16.40
2023-01-31T21:05:17.773Z,14.20
2023-01-31T21:07:44.904Z,13.70
2023-01-31T21:10:12.407Z,15.30
2023-01-31T21:12:39.583Z,14.40
2023-01-31T21:15:06.783Z,15.50
2023-01-31T21:17:40.066Z,12.70
2023-01-31T21:20:10.472Z,14.50
2023-01-31T21:22:46.436Z,16.40
2023-01-31T21:25:16.614Z,15.30
2023-01-31T21:27:46.453Z,11.60
2023-01-31T21:30:15.079Z,14.60
2023-01-31T21:32:42.925Z,15.70
2023-01-31T21:35:09.782Z,13.90
2023-01-31T21:37:36.805Z,13.90
2023-01-31T21:40:04.108Z,12.60
2023-01-31T21:42:30.694Z,12.00
2023-01-31T21:44:57.434Z,13.10
2023-01-31T21:47:24.526Z,12.60
2023-01-31T21:49:51.196Z,15.30
2023-01-31T21:52:17.861Z,16.90
2023-01-31T21:54:44.845Z,11.50
2023-01-31T21:57:11.451Z,15.60
2023-01-31T21:59:38.887Z,13.20
2023-01-31T22:02:06.023Z,12.40
2023-01-31T22:04:32.699Z,15.30
2023-01-31T22:06:59.598Z,12.10
2023-01-31T22:09:26.748Z,14.20
2023-01-31T22:11:53.999Z,14.00
2023-01-31T22:14:20.675Z,10.50
2023-01-31T22:16:49.501Z,11.80
2023-01-31T22:19:16.411Z,11.90
2023-01-31T22:21:43.000Z,14.00
2023-01-31T22:24:10.983Z,11.70
2023-01-31T22:26:40.572Z,13.40
2023-01-31T22:29:10.056Z,13.50
2023-01-31T22:31:37.505Z,12.60
2023-01-31T22:34:06.798Z,12.60
2023-01-31T22:36:34.161Z,15.60
2023-01-31T22:39:01.720Z,14.00
2023-01-31T22:41:28.746Z,13.80
2023-01-31T22:43:55.569Z,13.10
2023-01-31T22:46:27.910Z,15.90
2023-01-31T22:48:55.138Z,16.50
2023-01-31T22:51:25.152Z,14.00
2023-01-31T22:53:53.656Z,15.90
2023-01-31T22:56:23.322Z,15.30
2023-01-31T22:58:55.679Z,16.10
2023-01-31T23:01:24.675Z,15.70
2023-01-31T23:03:56.191Z,15.50
2023-01-31T23:06:23.070Z,16.30
2023-01-31T23:08:49.894Z,16.30
2023-01-31T23:11:17.769Z,18.60
2023-01-31T23:13:45.340Z,16.70
2023-01-31T23:16:41.407Z,17.40
2023-01-31T23:19:08.236Z,15.00
2023-01-31T23:21:35.587Z,17.50
2023-01-31T23:24:02.738Z,17.60
2023-01-31T23:26:33.880Z,15.90
2023-01-31T23:29:01.025Z,14.60
2023-01-31T23:31:27.945Z,9.00
2023-01-31T23:33:54.973Z,14.50
2023-01-31T23:36:21.923Z,12.90
2023-01-31T23:38:48.599Z,12.20
2023-01-31T23:41:15.523Z,11.00
2023-01-31T23:43:42.319Z,10.30
2023-01-31T23:46:08.965Z,10.60
2023-01-31T23:48:39.130Z,9.80
2023-01-31T23:51:05.929Z,9.30
2023-01-31T23:53:32.520Z,9.20
2023-01-31T23:55:59.349Z,8.40
2023-01-31T23:58:26.151Z,8.00
